Time;durP1;ratioP1;P1;durP2;ratioP2;P2;SDS_P1;SDS_P2;PMS_P1;PMS_P2;Temp;Humidity;BMP_temperature;BMP_pressure;BME280_temperature;BME280_humidity;BME280_pressure;Samples;Min_cycle;Max_cycle;Signal;HPM_P1;HPM_P2
2022/12/09 00:01:29;;;;;;;26.20;16.53;;;4.10;99.90;;;;;;5066764;28;20272;-30
2022/12/09 00:03:56;;;;;;;23.60;15.57;;;4.10;99.90;;;;;;5071043;28;20612;-30
2022/12/09 00:06:32;;;;;;;23.87;16.23;;;4.20;99.90;;;;;;5067016;28;20235;-30
2022/12/09 00:08:59;;;;;;;20.67;15.37;;;4.20;99.90;;;;;;5064481;28;20706;-30
2022/12/09 00:11:27;;;;;;;24.30;16.90;;;4.20;99.90;;;;;;5060048;28;20204;-30
2022/12/09 00:13:58;;;;;;;24.20;16.33;;;4.20;99.90;;;;;;5055772;28;20212;-30
2022/12/09 00:16:26;;;;;;;23.27;15.93;;;4.20;99.90;;;;;;5069932;28;20679;-30
2022/12/09 00:18:56;;;;;;;23.07;15.80;;;4.20;99.90;;;;;;5069029;28;20222;-30
2022/12/09 00:21:24;;;;;;;22.40;15.00;;;4.20;99.90;;;;;;5062940;28;20227;-30
2022/12/09 00:23:58;;;;;;;25.97;16.27;;;4.30;99.90;;;;;;5063654;28;20690;-30
2022/12/09 00:26:33;;;;;;;29.43;16.23;;;4.30;99.90;;;;;;5063352;28;20227;-30
2022/12/09 00:29:03;;;;;;;24.17;16.10;;;4.30;99.90;;;;;;5059200;28;20216;-30
2022/12/09 00:31:35;;;;;;;26.17;16.03;;;4.30;99.90;;;;;;5053513;28;20228;-32
2022/12/09 00:34:11;;;;;;;21.33;15.93;;;4.30;99.90;;;;;;5044112;28;20908;-32
2022/12/09 00:36:39;;;;;;;23.67;16.27;;;4.20;99.90;;;;;;5049906;28;20216;-30
2022/12/09 00:39:07;;;;;;;22.33;15.33;;;4.20;99.90;;;;;;5072623;28;20246;-31
2022/12/09 00:41:36;;;;;;;22.40;16.13;;;4.30;99.90;;;;;;5065227;28;20207;-31
2022/12/09 00:44:06;;;;;;;21.03;14.07;;;4.30;99.90;;;;;;5061316;28;20302;-31
2022/12/09 00:46:33;;;;;;;24.33;14.93;;;4.30;99.90;;;;;;5074315;28;20594;-30
2022/12/09 00:49:05;;;;;;;24.37;15.80;;;4.30;99.90;;;;;;5067021;28;20212;-31
2022/12/09 00:51:32;;;;;;;22.07;15.80;;;4.30;99.90;;;;;;5060530;28;20203;-31
2022/12/09 00:54:02;;;;;;;23.43;16.20;;;4.30;99.90;;;;;;5057132;28;20219;-31
2022/12/09 00:56:32;;;;;;;23.07;15.30;;;4.30;99.90;;;;;;5056514;28;20562;-31
2022/12/09 00:59:03;;;;;;;24.47;16.07;;;4.30;99.90;;;;;;5045405;28;20212;-30
2022/12/09 01:01:35;;;;;;;23.73;16.73;;;4.30;99.90;;;;;;5071160;28;20704;-30
2022/12/09 01:04:06;;;;;;;24.50;16.77;;;4.30;99.90;;;;;;5060527;28;20210;-31
2022/12/09 01:06:37;;;;;;;24.27;16.70;;;4.30;99.90;;;;;;5065243;28;20226;-32
2022/12/09 01:09:10;;;;;;;22.67;15.80;;;4.20;99.90;;;;;;5064881;28;20196;-32
2022/12/09 01:11:39;;;;;;;28.27;15.80;;;4.20;99.90;;;;;;5062847;28;20200;-32
2022/12/09 01:14:09;;;;;;;23.60;16.97;;;4.10;99.90;;;;;;5061599;28;20210;-32
2022/12/09 01:16:36;;;;;;;25.00;16.83;;;4.10;99.90;;;;;;5082979;28;20660;-32
2022/12/09 01:19:06;;;;;;;24.87;16.00;;;4.10;99.90;;;;;;5069385;28;20306;-32
2022/12/09 01:21:37;;;;;;;26.33;16.77;;;4.10;99.90;;;;;;5061134;28;21387;-32
2022/12/09 01:24:08;;;;;;;25.87;16.30;;;4.10;99.90;;;;;;5056905;28;20231;-32
2022/12/09 01:26:38;;;;;;;24.57;16.90;;;4.00;99.90;;;;;;5053354;28;20332;-32
2022/12/09 01:29:06;;;;;;;21.80;15.97;;;4.00;99.90;;;;;;5057317;28;20295;-32
2022/12/09 01:31:38;;;;;;;20.90;16.03;;;4.00;99.90;;;;;;5051886;28;20750;-32
2022/12/09 01:34:10;;;;;;;24.50;16.80;;;3.90;99.90;;;;;;5058895;28;20223;-32
2022/12/09 01:36:38;;;;;;;20.77;15.80;;;3.90;99.90;;;;;;5053094;28;20204;-32
2022/12/09 01:39:07;;;;;;;24.10;17.00;;;3.90;99.90;;;;;;5046803;28;20211;-32
2022/12/09 01:41:37;;;;;;;22.63;16.87;;;3.80;99.90;;;;;;5048735;28;20631;-32
2022/12/09 01:44:22;;;;;;;22.63;16.17;;;3.80;99.90;;;;;;5052411;28;20646;-32
2022/12/09 01:46:57;;;;;;;26.10;16.20;;;3.80;99.90;;;;;;5069877;28;20242;-31
2022/12/09 01:49:32;;;;;;;25.53;17.07;;;3.80;99.90;;;;;;5048514;28;20239;-32
2022/12/09 01:52:21;;;;;;;23.97;17.20;;;3.70;99.90;;;;;;5047828;28;20711;-31
2022/12/09 01:54:51;;;;;;;25.03;17.30;;;3.70;99.90;;;;;;5053398;28;20710;-31
2022/12/09 01:57:19;;;;;;;26.90;17.00;;;3.70;99.90;;;;;;5057328;28;20212;-31
2022/12/09 01:59:48;;;;;;;22.83;16.97;;;3.70;99.90;;;;;;5046702;28;20250;-32
2022/12/09 02:02:19;;;;;;;23.70;17.03;;;3.60;99.90;;;;;;5049780;28;20291;-32
2022/12/09 02:04:48;;;;;;;23.67;17.00;;;3.60;99.90;;;;;;5061075;28;20294;-32
2022/12/09 02:07:17;;;;;;;25.83;17.57;;;3.60;99.90;;;;;;5065301;28;20199;-32
2022/12/09 02:09:45;;;;;;;23.67;17.03;;;3.50;99.90;;;;;;5064444;28;20569;-32
2022/12/09 02:12:40;;;;;;;26.40;17.13;;;3.50;99.90;;;;;;5060812;28;20253;-32
2022/12/09 02:15:22;;;;;;;25.93;17.00;;;3.50;99.90;;;;;;5056007;28;20214;-32
2022/12/09 02:17:58;;;;;;;25.70;17.43;;;3.40;99.90;;;;;;5058297;28;20223;-32
2022/12/09 02:20:34;;;;;;;26.57;18.47;;;3.40;99.90;;;;;;5072063;28;20624;-32
2022/12/09 02:23:18;;;;;;;25.60;17.93;;;3.30;99.90;;;;;;5063777;28;20300;-32
2022/12/09 02:26:06;;;;;;;24.47;17.17;;;3.30;99.90;;;;;;5056155;28;20223;-32
2022/12/09 02:28:59;;;;;;;24.77;17.67;;;3.30;99.90;;;;;;5072474;28;20471;-32
2022/12/09 02:32:12;;;;;;;25.90;18.33;;;3.20;99.90;;;;;;5076866;28;20195;-32
2022/12/09 02:35:04;;;;;;;28.10;17.97;;;3.30;99.90;;;;;;5041007;28;20223;-32
2022/12/09 02:37:53;;;;;;;26.20;18.63;;;3.20;99.90;;;;;;5050174;28;21161;-32
2022/12/09 02:40:32;;;;;;;24.10;17.43;;;3.20;99.90;;;;;;5067707;28;20203;-31
2022/12/09 02:43:04;;;;;;;23.37;16.77;;;3.20;99.90;;;;;;5067533;28;20663;-32
2022/12/09 02:45:34;;;;;;;29.20;18.30;;;3.20;99.90;;;;;;5056804;28;20219;-32
2022/12/09 02:48:08;;;;;;;29.40;18.83;;;3.20;99.90;;;;;;5058078;28;20349;-32
2022/12/09 02:50:38;;;;;;;27.37;17.90;;;3.20;99.90;;;;;;5061191;28;20240;-32
2022/12/09 02:53:11;;;;;;;26.10;17.67;;;3.10;99.90;;;;;;5065001;28;20223;-32
2022/12/09 02:55:40;;;;;;;27.37;18.13;;;3.10;99.90;;;;;;5064672;28;20663;-33
2022/12/09 02:58:08;;;;;;;27.80;17.57;;;3.10;99.90;;;;;;5063535;28;20618;-32
2022/12/09 03:00:39;;;;;;;27.40;18.73;;;3.10;99.90;;;;;;5054573;28;20281;-31
2022/12/09 03:03:15;;;;;;;30.23;19.10;;;3.10;99.90;;;;;;5061724;28;20211;-32
2022/12/09 03:05:48;;;;;;;28.40;18.67;;;3.10;99.90;;;;;;5053105;28;20219;-32
2022/12/09 03:08:38;;;;;;;26.50;17.87;;;3.00;99.90;;;;;;5065226;28;20210;-32
2022/12/09 03:11:10;;;;;;;27.47;17.87;;;3.00;99.90;;;;;;5066428;28;20211;-32
2022/12/09 03:14:00;;;;;;;30.17;18.80;;;3.00;99.90;;;;;;5066265;28;20576;-32
2022/12/09 03:16:52;;;;;;;27.40;18.53;;;3.00;99.90;;;;;;5047498;28;20285;-32
2022/12/09 03:19:36;;;;;;;32.70;18.43;;;3.00;99.90;;;;;;5061897;28;20590;-32
2022/12/09 03:22:10;;;;;;;28.23;19.17;;;2.90;99.90;;;;;;5047257;28;20212;-32
2022/12/09 03:24:46;;;;;;;30.70;19.47;;;2.90;99.90;;;;;;5046968;28;20731;-31
2022/12/09 03:27:21;;;;;;;32.13;20.13;;;2.90;99.90;;;;;;5049211;28;20256;-31
2022/12/09 03:29:53;;;;;;;29.30;20.00;;;2.90;99.90;;;;;;5068840;28;20301;-32
2022/12/09 03:32:25;;;;;;;28.30;19.43;;;2.90;99.90;;;;;;5069359;28;20200;-32
2022/12/09 03:35:00;;;;;;;30.97;20.33;;;2.90;99.90;;;;;;5064341;28;21050;-32
2022/12/09 03:37:31;;;;;;;30.77;19.63;;;2.90;99.90;;;;;;5061351;28;20223;-32
2022/12/09 03:40:02;;;;;;;30.50;20.00;;;2.90;99.90;;;;;;5047340;28;20251;-32
2022/12/09 03:42:48;;;;;;;31.47;20.17;;;2.80;99.90;;;;;;5045710;28;20287;-31
2022/12/09 03:45:18;;;;;;;33.27;20.77;;;2.80;99.90;;;;;;5060435;28;20323;-32
2022/12/09 03:47:48;;;;;;;31.27;20.90;;;2.80;99.90;;;;;;5046303;28;20282;-32
2022/12/09 03:50:15;;;;;;;32.33;20.93;;;2.80;99.90;;;;;;5050541;28;20236;-32
2022/12/09 03:52:55;;;;;;;34.57;20.37;;;2.80;99.90;;;;;;5065784;28;20200;-32
2022/12/09 03:55:32;;;;;;;32.37;21.30;;;2.70;99.90;;;;;;5064692;28;20204;-32
2022/12/09 03:58:05;;;;;;;29.73;19.90;;;2.70;99.90;;;;;;5047092;28;20685;-32
2022/12/09 04:00:38;;;;;;;31.07;19.80;;;2.70;99.90;;;;;;5065753;28;20196;-32
2022/12/09 04:03:06;;;;;;;34.43;22.27;;;2.70;99.90;;;;;;5062688;28;20694;-32
2022/12/09 04:05:39;;;;;;;36.10;21.77;;;2.70;99.90;;;;;;5061447;28;20211;-31
2022/12/09 04:08:06;;;;;;;32.00;21.07;;;2.70;99.90;;;;;;5064285;28;20210;-32
2022/12/09 04:10:34;;;;;;;35.97;22.03;;;2.60;99.90;;;;;;5054742;28;20208;-32
2022/12/09 04:13:04;;;;;;;33.43;21.73;;;2.60;99.90;;;;;;5065049;28;20231;-34
2022/12/09 04:15:33;;;;;;;32.83;21.27;;;2.60;99.90;;;;;;5059416;28;20201;-32
2022/12/09 04:18:00;;;;;;;35.37;20.30;;;2.60;99.90;;;;;;5056063;28;20629;-33
2022/12/09 04:20:30;;;;;;;31.70;20.43;;;2.60;99.90;;;;;;5062906;28;20216;-32
2022/12/09 04:23:00;;;;;;;33.10;21.60;;;2.50;99.90;;;;;;5053389;28;20297;-32
2022/12/09 04:25:32;;;;;;;35.23;21.70;;;2.60;99.90;;;;;;5052969;28;20280;-32
2022/12/09 04:28:01;;;;;;;32.97;20.67;;;2.50;99.90;;;;;;5048125;28;20215;-32
2022/12/09 04:30:28;;;;;;;33.57;21.53;;;2.50;99.90;;;;;;5077502;28;20513;-32
2022/12/09 04:33:00;;;;;;;33.83;22.13;;;2.50;99.90;;;;;;5085714;28;20199;-32
2022/12/09 04:35:28;;;;;;;35.07;20.87;;;2.50;99.90;;;;;;5069666;28;20206;-32
2022/12/09 04:37:55;;;;;;;32.87;21.63;;;2.40;99.90;;;;;;5047457;28;20276;-32
2022/12/09 04:40:22;;;;;;;34.00;21.93;;;2.40;99.90;;;;;;5063376;28;20254;-32
2022/12/09 04:42:53;;;;;;;36.17;23.20;;;2.40;99.90;;;;;;5065296;28;20281;-31
2022/12/09 04:45:21;;;;;;;33.83;23.07;;;2.40;99.90;;;;;;5059003;28;20216;-32
2022/12/09 04:47:48;;;;;;;33.53;21.50;;;2.40;99.90;;;;;;5044531;28;20323;-31
2022/12/09 04:50:17;;;;;;;36.77;21.33;;;2.40;99.90;;;;;;5054212;28;20262;-33
2022/12/09 04:52:47;;;;;;;31.50;20.53;;;2.40;99.90;;;;;;5062483;28;20323;-32
2022/12/09 04:55:15;;;;;;;37.50;21.20;;;2.40;99.90;;;;;;5058161;28;20200;-32
2022/12/09 04:57:42;;;;;;;33.87;21.53;;;2.40;99.90;;;;;;5056257;28;20231;-32
2022/12/09 05:00:11;;;;;;;32.60;21.17;;;2.40;99.90;;;;;;5067237;28;20310;-32
2022/12/09 05:02:42;;;;;;;33.40;20.57;;;2.30;99.90;;;;;;5059469;28;20216;-32
2022/12/09 05:05:12;;;;;;;31.77;19.40;;;2.30;99.90;;;;;;5056989;28;20204;-32
2022/12/09 05:07:42;;;;;;;31.17;19.20;;;2.30;99.90;;;;;;5063406;28;20273;-32
2022/12/09 05:10:13;;;;;;;30.20;20.17;;;2.30;99.90;;;;;;5066047;28;20199;-32
2022/12/09 05:12:45;;;;;;;31.53;21.00;;;2.40;99.90;;;;;;5061098;28;20230;-31
2022/12/09 05:15:13;;;;;;;32.70;20.13;;;2.40;99.90;;;;;;5066349;28;20204;-31
2022/12/09 05:17:40;;;;;;;31.77;20.27;;;2.40;99.90;;;;;;5057896;28;20222;-32
2022/12/09 05:20:10;;;;;;;39.57;21.10;;;2.30;99.90;;;;;;5063258;28;20203;-32
2022/12/09 05:22:38;;;;;;;37.10;21.40;;;2.30;99.90;;;;;;5048298;28;20262;-32
2022/12/09 05:25:09;;;;;;;34.00;22.17;;;2.30;99.90;;;;;;5055922;28;20207;-31
2022/12/09 05:27:41;;;;;;;30.77;20.60;;;2.30;99.90;;;;;;5064282;28;20242;-32
2022/12/09 05:30:11;;;;;;;32.20;21.53;;;2.30;99.90;;;;;;5065738;28;20290;-32
2022/12/09 05:32:42;;;;;;;34.50;22.17;;;2.30;99.90;;;;;;5060084;28;20200;-32
2022/12/09 05:35:12;;;;;;;32.27;21.30;;;2.20;99.90;;;;;;5059397;28;20294;-31
2022/12/09 05:37:41;;;;;;;33.63;21.13;;;2.20;99.90;;;;;;5063243;28;20219;-32
2022/12/09 05:40:16;;;;;;;31.50;20.30;;;2.20;99.90;;;;;;5065175;28;20207;-31
2022/12/09 05:42:44;;;;;;;33.67;21.13;;;2.30;99.90;;;;;;5063333;28;20195;-32
2022/12/09 05:45:11;;;;;;;34.50;22.40;;;2.30;99.90;;;;;;5062421;28;20764;-31
2022/12/09 05:47:39;;;;;;;35.43;21.87;;;2.30;99.90;;;;;;5064511;28;20728;-31
2022/12/09 05:50:12;;;;;;;33.97;21.83;;;2.30;99.90;;;;;;5059015;28;20224;-32
2022/12/09 05:52:42;;;;;;;34.53;22.23;;;2.30;99.90;;;;;;5062275;28;20555;-32
2022/12/09 05:55:10;;;;;;;37.13;23.43;;;2.30;99.90;;;;;;5072239;28;20199;-32
2022/12/09 05:57:40;;;;;;;40.43;23.13;;;2.30;99.90;;;;;;5084582;28;20217;-32
2022/12/09 06:00:10;;;;;;;36.23;23.00;;;2.40;99.90;;;;;;5060563;28;20662;-34
2022/12/09 06:02:43;;;;;;;34.23;22.10;;;2.40;99.90;;;;;;5056208;28;20219;-34
2022/12/09 06:05:13;;;;;;;32.70;20.70;;;2.40;99.90;;;;;;5052522;28;20276;-34
2022/12/09 06:07:40;;;;;;;36.53;22.97;;;2.40;99.90;;;;;;5051390;28;20701;-32
2022/12/09 06:10:11;;;;;;;38.23;22.90;;;2.40;99.90;;;;;;5049911;28;20212;-32
2022/12/09 06:12:39;;;;;;;41.47;23.67;;;2.50;99.90;;;;;;5057916;28;20314;-32
2022/12/09 06:15:07;;;;;;;35.53;21.50;;;2.50;99.90;;;;;;5058760;28;20203;-32
2022/12/09 06:17:37;;;;;;;43.17;23.73;;;2.50;99.90;;;;;;5064088;28;20199;-32
2022/12/09 06:20:05;;;;;;;39.17;23.33;;;2.50;99.90;;;;;;5055067;28;20214;-32
2022/12/09 06:22:34;;;;;;;37.93;22.80;;;2.50;99.90;;;;;;5067992;28;20211;-32
2022/12/09 06:25:04;;;;;;;39.07;23.07;;;2.60;99.90;;;;;;5054481;28;20212;-32
2022/12/09 06:27:33;;;;;;;38.70;23.00;;;2.60;99.90;;;;;;5044322;28;20781;-32
2022/12/09 06:30:01;;;;;;;49.77;25.80;;;2.60;99.90;;;;;;5066466;28;20211;-32
2022/12/09 06:32:31;;;;;;;51.70;25.87;;;2.60;99.90;;;;;;5064927;28;20210;-31
2022/12/09 06:35:05;;;;;;;53.13;26.70;;;2.70;99.90;;;;;;5058745;28;20204;-31
2022/12/09 06:37:38;;;;;;;51.30;27.23;;;2.70;99.90;;;;;;5063522;28;20196;-31
2022/12/09 06:40:06;;;;;;;48.60;25.40;;;2.70;99.90;;;;;;5064406;28;20269;-31
2022/12/09 06:42:36;;;;;;;50.77;27.00;;;2.70;99.90;;;;;;5052667;28;20480;-31
2022/12/09 06:45:06;;;;;;;55.73;25.97;;;2.80;99.90;;;;;;5063078;28;20277;-30
2022/12/09 06:47:34;;;;;;;50.10;25.73;;;2.80;99.90;;;;;;5064306;28;20648;-30
2022/12/09 06:50:04;;;;;;;44.93;24.90;;;2.80;99.90;;;;;;5061520;28;20246;-33
2022/12/09 06:52:37;;;;;;;49.63;25.77;;;2.80;99.90;;;;;;5055280;28;20207;-31
2022/12/09 06:55:08;;;;;;;54.77;27.53;;;2.90;99.90;;;;;;5063796;28;20648;-31
2022/12/09 06:57:36;;;;;;;45.73;24.60;;;2.90;99.90;;;;;;5074924;28;20251;-31
2022/12/09 07:00:04;;;;;;;50.90;25.33;;;2.90;99.90;;;;;;5062543;28;20243;-30
2022/12/09 07:02:33;;;;;;;46.63;24.13;;;2.90;99.90;;;;;;5057081;28;20326;-31
2022/12/09 07:05:03;;;;;;;55.13;27.33;;;3.00;99.90;;;;;;5060438;28;20220;-30
2022/12/09 07:07:32;;;;;;;53.37;25.60;;;2.90;99.90;;;;;;5065181;28;20502;-31
2022/12/09 07:10:07;;;;;;;46.10;26.00;;;2.90;99.90;;;;;;5066647;28;20204;-31
2022/12/09 07:12:37;;;;;;;53.23;27.00;;;2.90;99.90;;;;;;5067105;28;20192;-31
2022/12/09 07:15:04;;;;;;;51.40;26.70;;;2.90;99.90;;;;;;5072716;28;20238;-31
2022/12/09 07:17:33;;;;;;;54.80;26.90;;;2.90;99.90;;;;;;5060727;28;20204;-31
2022/12/09 07:20:08;;;;;;;54.00;26.37;;;2.90;99.90;;;;;;5050297;28;20677;-31
2022/12/09 07:22:36;;;;;;;52.57;26.00;;;2.90;99.90;;;;;;5056551;28;20556;-31
2022/12/09 07:25:06;;;;;;;47.57;24.77;;;3.00;99.90;;;;;;5049213;28;20215;-30
2022/12/09 07:27:34;;;;;;;48.50;24.50;;;3.00;99.90;;;;;;5050007;28;20234;-31
2022/12/09 07:30:05;;;;;;;46.80;23.23;;;3.00;99.90;;;;;;5055692;28;20208;-31
2022/12/09 07:32:35;;;;;;;45.33;23.93;;;3.10;99.90;;;;;;5060247;28;20199;-31
2022/12/09 07:35:05;;;;;;;54.17;25.53;;;3.10;99.90;;;;;;5049023;28;20209;-31
2022/12/09 07:37:36;;;;;;;53.70;26.63;;;3.10;99.90;;;;;;5047158;28;20714;-30
2022/12/09 07:40:09;;;;;;;58.13;26.50;;;3.10;99.90;;;;;;5056816;28;20203;-31
2022/12/09 07:42:37;;;;;;;61.10;25.90;;;3.10;99.90;;;;;;5065992;28;20697;-31
2022/12/09 07:45:10;;;;;;;53.23;25.13;;;3.10;99.90;;;;;;5070511;28;20203;-31
2022/12/09 07:47:40;;;;;;;49.97;24.87;;;3.10;99.90;;;;;;5066580;28;20271;-31
2022/12/09 07:50:08;;;;;;;58.27;25.10;;;3.10;99.90;;;;;;5056039;28;20243;-31
2022/12/09 07:52:38;;;;;;;45.93;23.30;;;3.10;99.90;;;;;;5047680;28;20647;-31
2022/12/09 07:55:06;;;;;;;44.63;22.57;;;3.10;99.90;;;;;;5052932;28;20223;-30
2022/12/09 07:57:34;;;;;;;42.40;22.10;;;3.10;99.90;;;;;;5054524;28;20243;-31
2022/12/09 08:00:07;;;;;;;47.43;21.87;;;3.10;99.90;;;;;;5056724;28;20202;-31
2022/12/09 08:02:40;;;;;;;50.03;23.57;;;3.10;99.90;;;;;;5070116;28;20242;-30
2022/12/09 08:05:07;;;;;;;49.67;24.40;;;3.10;99.90;;;;;;5063504;28;20223;-31
2022/12/09 08:07:38;;;;;;;42.57;22.20;;;3.10;99.90;;;;;;5057168;28;20314;-31
2022/12/09 08:10:10;;;;;;;45.87;22.20;;;3.10;99.90;;;;;;5053697;28;20290;-30
2022/12/09 08:12:38;;;;;;;47.73;22.93;;;3.10;99.90;;;;;;5060448;28;20576;-31
2022/12/09 08:15:05;;;;;;;46.20;22.07;;;3.10;99.90;;;;;;5061824;28;20204;-30
2022/12/09 08:17:33;;;;;;;44.40;22.13;;;3.10;99.90;;;;;;5069177;28;20242;-31
2022/12/09 08:20:01;;;;;;;50.53;23.67;;;3.10;99.90;;;;;;5064557;28;20626;-31
2022/12/09 08:22:31;;;;;;;44.47;22.57;;;3.10;99.90;;;;;;5064185;28;20211;-30
2022/12/09 08:24:58;;;;;;;51.50;24.40;;;3.10;99.90;;;;;;5063437;28;20743;-31
2022/12/09 08:27:30;;;;;;;53.67;25.00;;;3.10;99.90;;;;;;5060774;28;20220;-31
2022/12/09 08:29:57;;;;;;;52.93;25.87;;;3.20;99.90;;;;;;5064472;28;20196;-31
2022/12/09 08:32:25;;;;;;;49.80;25.03;;;3.20;99.90;;;;;;5050352;28;20212;-31
2022/12/09 08:34:52;;;;;;;47.47;24.00;;;3.20;99.90;;;;;;5044545;28;20200;-30
2022/12/09 08:37:25;;;;;;;52.57;23.63;;;3.20;99.90;;;;;;5051330;28;20195;-31
2022/12/09 08:39:52;;;;;;;49.13;24.23;;;3.20;99.90;;;;;;5065175;28;20207;-31
2022/12/09 08:42:22;;;;;;;56.03;25.50;;;3.20;99.90;;;;;;5056135;28;20238;-31
2022/12/09 08:44:49;;;;;;;55.73;26.17;;;3.20;99.90;;;;;;5060450;28;20199;-31
2022/12/09 08:47:23;;;;;;;58.40;25.43;;;3.20;99.90;;;;;;5069781;28;20219;-31
2022/12/09 08:49:53;;;;;;;51.47;24.23;;;3.20;99.90;;;;;;5045761;28;20243;-31
2022/12/09 08:52:24;;;;;;;50.40;24.70;;;3.20;99.90;;;;;;5048216;28;20207;-31
2022/12/09 08:54:56;;;;;;;46.80;23.03;;;3.20;99.90;;;;;;5063134;28;20216;-31
2022/12/09 08:57:27;;;;;;;48.80;23.00;;;3.30;99.90;;;;;;5053776;28;20220;-31
2022/12/09 08:59:55;;;;;;;49.60;23.30;;;3.20;99.90;;;;;;5046826;28;20211;-31
2022/12/09 09:02:22;;;;;;;40.57;20.97;;;3.20;99.90;;;;;;5068637;28;20204;-30
2022/12/09 09:04:50;;;;;;;42.53;21.23;;;3.20;99.90;;;;;;5050548;28;20766;-31
2022/12/09 09:07:20;;;;;;;40.47;19.97;;;3.20;99.90;;;;;;5059006;28;20216;-31
2022/12/09 09:09:47;;;;;;;43.60;22.67;;;3.20;99.90;;;;;;5061289;28;20649;-31
2022/12/09 09:12:18;;;;;;;41.27;21.50;;;3.10;99.90;;;;;;5044721;28;20200;-30
2022/12/09 09:14:51;;;;;;;40.93;22.23;;;3.10;99.90;;;;;;5046979;28;20216;-31
2022/12/09 09:17:23;;;;;;;43.33;21.33;;;3.10;99.90;;;;;;5071505;28;20202;-31
2022/12/09 09:19:53;;;;;;;44.37;21.80;;;3.10;99.90;;;;;;5060725;28;20200;-31
2022/12/09 09:22:23;;;;;;;43.13;22.63;;;3.10;99.90;;;;;;5064063;28;20200;-31
2022/12/09 09:24:52;;;;;;;43.53;23.20;;;3.20;99.90;;;;;;5048858;28;20204;-31
2022/12/09 09:27:20;;;;;;;42.63;22.40;;;3.20;99.90;;;;;;5062832;28;20215;-31
2022/12/09 09:29:52;;;;;;;44.60;23.70;;;3.20;99.90;;;;;;5059037;28;20196;-31
2022/12/09 09:32:28;;;;;;;44.80;22.53;;;3.20;99.90;;;;;;5071128;28;20219;-31
2022/12/09 09:34:58;;;;;;;42.53;22.83;;;3.30;99.90;;;;;;5065786;28;20241;-31
2022/12/09 09:37:26;;;;;;;48.87;23.20;;;3.30;99.90;;;;;;5062987;28;20212;-31
2022/12/09 09:39:53;;;;;;;42.43;22.57;;;3.30;99.90;;;;;;5058267;28;20301;-31
2022/12/09 09:42:34;;;;;;;48.70;23.50;;;3.30;99.90;;;;;;5064053;28;20284;-30
2022/12/09 09:45:13;;;;;;;46.03;23.00;;;3.40;99.90;;;;;;5065269;28;20561;-31
2022/12/09 09:47:52;;;;;;;41.77;21.93;;;3.40;99.90;;;;;;5061227;28;20302;-31
2022/12/09 09:50:42;;;;;;;42.77;21.87;;;3.40;99.90;;;;;;5050372;28;20250;-31
2022/12/09 09:53:25;;;;;;;39.07;20.90;;;3.40;99.90;;;;;;5047588;28;20303;-31
2022/12/09 09:55:59;;;;;;;43.30;22.57;;;3.40;99.90;;;;;;5057999;28;20204;-31
2022/12/09 09:58:44;;;;;;;41.83;22.90;;;3.40;99.90;;;;;;5064442;28;20754;-31
2022/12/09 10:01:14;;;;;;;43.43;22.23;;;3.50;99.90;;;;;;5052489;28;20603;-30
2022/12/09 10:03:56;;;;;;;43.47;23.80;;;3.50;99.90;;;;;;5056031;28;20215;-32
2022/12/09 10:06:42;;;;;;;42.53;23.43;;;3.50;99.90;;;;;;5064092;28;20208;-32
2022/12/09 10:09:29;;;;;;;51.37;24.33;;;3.60;99.90;;;;;;5064352;28;20222;-31
2022/12/09 10:12:01;;;;;;;45.50;22.77;;;3.60;99.90;;;;;;5063057;28;20229;-31
2022/12/09 10:14:47;;;;;;;43.77;23.53;;;3.60;99.90;;;;;;5064711;28;20203;-32
2022/12/09 10:17:34;;;;;;;50.83;26.67;;;3.70;99.90;;;;;;5051103;28;20230;-32
2022/12/09 10:20:21;;;;;;;46.83;25.83;;;3.70;99.90;;;;;;5063579;28;20740;-32
2022/12/09 10:22:58;;;;;;;49.03;25.87;;;3.70;99.90;;;;;;5060991;28;20598;-31
2022/12/09 10:25:29;;;;;;;46.13;25.37;;;3.70;99.90;;;;;;5059513;28;20234;-32
2022/12/09 10:28:09;;;;;;;49.83;25.47;;;3.80;99.90;;;;;;5048241;28;20219;-31
2022/12/09 10:30:37;;;;;;;48.83;25.43;;;3.80;99.90;;;;;;5064332;28;20199;-31
2022/12/09 10:33:14;;;;;;;52.30;26.87;;;3.80;99.90;;;;;;5068449;28;20192;-31
2022/12/09 10:35:45;;;;;;;49.00;25.67;;;3.80;99.90;;;;;;5060347;28;20196;-31
2022/12/09 10:38:17;;;;;;;49.43;25.70;;;3.80;99.90;;;;;;5047184;28;20633;-32
2022/12/09 10:40:45;;;;;;;54.50;26.90;;;3.80;99.90;;;;;;5046479;28;20589;-32
2022/12/09 10:43:34;;;;;;;52.67;27.50;;;3.80;99.90;;;;;;5034452;28;20252;-33
2022/12/09 10:46:10;;;;;;;54.83;28.23;;;3.90;99.90;;;;;;5070161;28;20259;-33
2022/12/09 10:48:47;;;;;;;53.40;27.20;;;3.80;99.90;;;;;;5063133;28;20231;-32
2022/12/09 10:51:22;;;;;;;57.47;28.60;;;3.80;99.90;;;;;;5061950;28;20243;-33
2022/12/09 10:53:49;;;;;;;59.70;27.03;;;3.90;99.90;;;;;;5072367;28;20677;-33
2022/12/09 10:56:27;;;;;;;52.90;26.87;;;3.80;99.90;;;;;;5066853;28;20292;-32
2022/12/09 10:59:25;;;;;;;59.37;28.07;;;3.90;99.90;;;;;;5064647;28;20206;-33
2022/12/09 11:02:02;;;;;;;59.13;27.80;;;3.90;99.90;;;;;;5073150;28;20674;-32
2022/12/09 11:04:39;;;;;;;50.07;26.10;;;3.90;99.90;;;;;;5063056;28;20207;-32
2022/12/09 11:07:18;;;;;;;50.63;27.10;;;4.00;99.90;;;;;;5065897;28;20207;-32
2022/12/09 11:09:57;;;;;;;53.17;27.57;;;3.90;99.90;;;;;;5062104;28;20207;-33
2022/12/09 11:12:25;;;;;;;48.07;24.50;;;3.90;99.90;;;;;;5047283;28;20271;-33
2022/12/09 11:15:04;;;;;;;53.20;26.37;;;3.90;99.90;;;;;;5051217;28;20295;-32
2022/12/09 11:17:35;;;;;;;45.00;24.00;;;3.90;99.90;;;;;;5068778;28;20766;-32
2022/12/09 11:20:19;;;;;;;50.23;25.80;;;3.90;99.90;;;;;;5067457;28;20211;-32
2022/12/09 11:23:05;;;;;;;43.43;23.50;;;3.90;99.90;;;;;;5057070;28;20207;-32
2022/12/09 11:25:35;;;;;;;43.60;24.23;;;3.90;99.90;;;;;;5055659;28;20203;-32
2022/12/09 11:28:14;;;;;;;47.23;24.60;;;3.90;99.90;;;;;;5064515;28;20226;-31
2022/12/09 11:30:56;;;;;;;46.23;23.03;;;3.90;99.90;;;;;;5066780;28;20382;-32
2022/12/09 11:33:57;;;;;;;46.43;23.30;;;3.90;99.90;;;;;;5054514;28;20230;-31
2022/12/09 11:36:34;;;;;;;45.43;23.70;;;3.90;99.90;;;;;;5066082;28;20253;-31
2022/12/09 11:39:31;;;;;;;42.63;23.07;;;3.90;99.90;;;;;;5054390;28;20214;-32
2022/12/09 11:42:21;;;;;;;46.17;23.73;;;3.90;99.90;;;;;;5050266;28;20236;-31
2022/12/09 11:44:59;;;;;;;49.70;23.57;;;3.90;99.90;;;;;;5062842;28;20230;-32
2022/12/09 11:47:35;;;;;;;47.83;23.87;;;3.90;99.90;;;;;;5053578;28;20220;-31
2022/12/09 11:50:30;;;;;;;44.63;22.73;;;3.90;99.90;;;;;;5050454;28;20242;-32
2022/12/09 11:53:11;;;;;;;46.57;24.70;;;3.90;99.90;;;;;;5086464;28;20252;-32
2022/12/09 11:56:21;;;;;;;50.67;25.27;;;3.90;99.90;;;;;;5056920;28;20698;-32
2022/12/09 11:59:15;;;;;;;47.80;23.53;;;3.90;99.90;;;;;;5049153;28;20334;-32
2022/12/09 12:01:45;;;;;;;43.87;23.87;;;3.80;99.90;;;;;;5054772;28;20208;-32
2022/12/09 12:04:25;;;;;;;40.80;22.97;;;3.80;99.90;;;;;;5066451;28;20269;-32
2022/12/09 12:07:02;;;;;;;44.87;22.87;;;3.90;99.90;;;;;;5065231;28;20244;-32
2022/12/09 12:09:41;;;;;;;40.47;21.57;;;3.90;99.90;;;;;;5061822;28;20321;-32
2022/12/09 12:12:40;;;;;;;45.13;23.80;;;3.90;99.90;;;;;;5067021;28;20576;-31
2022/12/09 12:15:32;;;;;;;43.07;23.67;;;3.90;99.90;;;;;;5063821;28;20207;-32
2022/12/09 12:18:08;;;;;;;43.67;25.10;;;3.90;99.90;;;;;;5046288;28;20192;-32
2022/12/09 12:21:15;;;;;;;43.03;22.77;;;3.90;99.90;;;;;;5050245;28;20342;-32
2022/12/09 12:24:13;;;;;;;41.73;22.63;;;3.90;99.90;;;;;;5050966;28;20241;-31
2022/12/09 12:27:09;;;;;;;39.93;23.07;;;3.90;99.90;;;;;;5053428;28;20889;-31
2022/12/09 12:29:55;;;;;;;43.23;23.93;;;3.90;99.90;;;;;;5048219;28;20238;-31
2022/12/09 12:32:53;;;;;;;48.60;24.33;;;3.90;99.90;;;;;;5074920;28;20589;-31
2022/12/09 12:35:53;;;;;;;43.63;22.57;;;3.90;99.90;;;;;;5044797;28;20609;-31
2022/12/09 12:38:52;;;;;;;42.37;23.63;;;3.90;99.90;;;;;;5045243;28;20756;-31
2022/12/09 12:41:22;;;;;;;40.53;22.30;;;3.90;99.90;;;;;;5050713;28;20664;-31
2022/12/09 12:47:45;;;;;;;42.63;23.57;;;3.90;99.90;;;;;;5032465;28;20228;-31
2022/12/09 12:50:24;;;;;;;52.23;24.93;;;3.90;99.90;;;;;;5048892;28;20448;-31
2022/12/09 12:53:19;;;;;;;44.73;24.87;;;3.90;99.90;;;;;;5052616;28;20203;-31
2022/12/09 12:55:57;;;;;;;49.03;23.27;;;3.90;99.90;;;;;;5073652;28;20194;-32
2022/12/09 12:59:02;;;;;;;49.17;25.53;;;3.90;99.90;;;;;;5062715;28;20206;-31
2022/12/09 13:01:41;;;;;;;41.67;23.50;;;3.90;99.90;;;;;;5078635;28;20209;-32
2022/12/09 13:04:18;;;;;;;42.50;22.83;;;3.90;99.90;;;;;;5057553;28;20202;-32
2022/12/09 13:07:06;;;;;;;43.37;24.23;;;3.90;99.90;;;;;;5081688;28;20219;-32
2022/12/09 13:09:57;;;;;;;35.70;20.30;;;3.90;99.90;;;;;;5073698;28;20219;-32
2022/12/09 13:15:31;;;;;;;40.03;22.10;;;3.90;99.90;;;;;;5064354;28;20309;-32
2022/12/09 13:18:06;;;;;;;48.63;23.73;;;3.90;99.90;;;;;;5085627;28;20214;-31